sensor_id;sensor_type;location;lat;lon;timestamp;pressure;altitude;pressure_sealevel;temperature
15680;BMP180;15488;48.114;11.532;2023-03-29T00:02:17;95818.00;;;12.60
15680;BMP180;15488;48.114;11.532;2023-03-29T00:04:46;95829.00;;;12.60
15680;BMP180;15488;48.114;11.532;2023-03-29T00:07:14;95834.00;;;12.60
15680;BMP180;15488;48.114;11.532;2023-03-29T00:09:42;95829.00;;;12.60
15680;BMP180;15488;48.114;11.532;2023-03-29T00:12:09;95855.00;;;12.60
15680;BMP180;15488;48.114;11.532;2023-03-29T00:14:37;95856.00;;;12.60
15680;BMP180;15488;48.114;11.532;2023-03-29T00:17:04;95860.00;;;12.50
15680;BMP180;15488;48.114;11.532;2023-03-29T00:19:32;95875.00;;;12.60
15680;BMP180;15488;48.114;11.532;2023-03-29T00:22:03;95869.00;;;12.60
15680;BMP180;15488;48.114;11.532;2023-03-29T00:24:31;95870.00;;;12.50
15680;BMP180;15488;48.114;11.532;2023-03-29T00:26:59;95878.00;;;12.60
15680;BMP180;15488;48.114;11.532;2023-03-29T00:29:26;95881.00;;;12.60
15680;BMP180;15488;48.114;11.532;2023-03-29T00:31:54;95872.00;;;12.50
15680;BMP180;15488;48.114;11.532;2023-03-29T00:34:22;95878.00;;;12.60
15680;BMP180;15488;48.114;11.532;2023-03-29T00:36:50;95812.00;;;12.50
15680;BMP180;15488;48.114;11.532;2023-03-29T00:39:20;95896.00;;;12.50
15680;BMP180;15488;48.114;11.532;2023-03-29T00:41:49;95866.00;;;12.40
15680;BMP180;15488;48.114;11.532;2023-03-29T00:44:55;95866.00;;;12.40
15680;BMP180;15488;48.114;11.532;2023-03-29T00:47:26;95881.00;;;12.40
15680;BMP180;15488;48.114;11.532;2023-03-29T00:49:57;95872.00;;;12.30
15680;BMP180;15488;48.114;11.532;2023-03-29T00:52:27;95884.00;;;12.40
15680;BMP180;15488;48.114;11.532;2023-03-29T00:55:01;95880.00;;;12.40
15680;BMP180;15488;48.114;11.532;2023-03-29T00:57:30;95873.00;;;12.30
15680;BMP180;15488;48.114;11.532;2023-03-29T00:59:59;95879.00;;;12.30
15680;BMP180;15488;48.114;11.532;2023-03-29T01:02:30;95871.00;;;12.30
15680;BMP180;15488;48.114;11.532;2023-03-29T01:05:03;95867.00;;;12.30
15680;BMP180;15488;48.114;11.532;2023-03-29T01:07:37;95862.00;;;12.30
15680;BMP180;15488;48.114;11.532;2023-03-29T01:10:11;95850.00;;;12.20
15680;BMP180;15488;48.114;11.532;2023-03-29T01:12:43;95841.00;;;12.20
15680;BMP180;15488;48.114;11.532;2023-03-29T01:15:13;95839.00;;;12.30
15680;BMP180;15488;48.114;11.532;2023-03-29T01:17:42;95846.00;;;12.30
15680;BMP180;15488;48.114;11.532;2023-03-29T01:20:19;95827.00;;;12.30
15680;BMP180;15488;48.114;11.532;2023-03-29T01:23:06;95824.00;;;12.30
15680;BMP180;15488;48.114;11.532;2023-03-29T01:25:46;95828.00;;;12.30
15680;BMP180;15488;48.114;11.532;2023-03-29T01:28:22;95804.00;;;12.30
15680;BMP180;15488;48.114;11.532;2023-03-29T01:30:52;95798.00;;;12.40
15680;BMP180;15488;48.114;11.532;2023-03-29T01:33:25;95799.00;;;12.40
15680;BMP180;15488;48.114;11.532;2023-03-29T01:35:58;95810.00;;;12.40
15680;BMP180;15488;48.114;11.532;2023-03-29T01:38:31;95803.00;;;12.40
15680;BMP180;15488;48.114;11.532;2023-03-29T01:41:01;95794.00;;;12.40
15680;BMP180;15488;48.114;11.532;2023-03-29T01:43:33;95793.00;;;12.40
15680;BMP180;15488;48.114;11.532;2023-03-29T01:46:05;95781.00;;;12.40
15680;BMP180;15488;48.114;11.532;2023-03-29T01:48:40;95763.00;;;12.40
15680;BMP180;15488;48.114;11.532;2023-03-29T01:51:11;95748.00;;;12.40
15680;BMP180;15488;48.114;11.532;2023-03-29T01:53:43;95753.00;;;12.40
15680;BMP180;15488;48.114;11.532;2023-03-29T01:56:15;95757.00;;;12.50
15680;BMP180;15488;48.114;11.532;2023-03-29T01:58:48;95753.00;;;12.50
15680;BMP180;15488;48.114;11.532;2023-03-29T02:01:19;95752.00;;;12.50
15680;BMP180;15488;48.114;11.532;2023-03-29T02:03:50;95740.00;;;12.50
15680;BMP180;15488;48.114;11.532;2023-03-29T02:06:22;95734.00;;;12.50
15680;BMP180;15488;48.114;11.532;2023-03-29T02:08:52;95719.00;;;12.60
15680;BMP180;15488;48.114;11.532;2023-03-29T02:11:21;95738.00;;;12.60
15680;BMP180;15488;48.114;11.532;2023-03-29T02:13:51;95735.00;;;12.60
15680;BMP180;15488;48.114;11.532;2023-03-29T02:16:18;95717.00;;;12.70
15680;BMP180;15488;48.114;11.532;2023-03-29T02:18:48;95717.00;;;12.60
15680;BMP180;15488;48.114;11.532;2023-03-29T02:21:23;95732.00;;;12.60
15680;BMP180;15488;48.114;11.532;2023-03-29T02:23:53;95730.00;;;12.60
15680;BMP180;15488;48.114;11.532;2023-03-29T02:26:22;95719.00;;;12.70
15680;BMP180;15488;48.114;11.532;2023-03-29T02:28:51;95706.00;;;12.70
15680;BMP180;15488;48.114;11.532;2023-03-29T02:31:21;95699.00;;;12.70
15680;BMP180;15488;48.114;11.532;2023-03-29T02:33:52;95704.00;;;12.70
15680;BMP180;15488;48.114;11.532;2023-03-29T02:36:23;95709.00;;;12.70
15680;BMP180;15488;48.114;11.532;2023-03-29T02:38:54;95696.00;;;12.80
15680;BMP180;15488;48.114;11.532;2023-03-29T02:41:23;95690.00;;;12.80
15680;BMP180;15488;48.114;11.532;2023-03-29T02:43:52;95681.00;;;12.80
15680;BMP180;15488;48.114;11.532;2023-03-29T02:46:22;95691.00;;;12.60
15680;BMP180;15488;48.114;11.532;2023-03-29T02:48:51;95687.00;;;12.80
15680;BMP180;15488;48.114;11.532;2023-03-29T02:51:21;95681.00;;;12.90
15680;BMP180;15488;48.114;11.532;2023-03-29T02:53:56;95685.00;;;12.80
15680;BMP180;15488;48.114;11.532;2023-03-29T02:56:25;95677.00;;;12.80
15680;BMP180;15488;48.114;11.532;2023-03-29T02:58:54;95668.00;;;12.80
15680;BMP180;15488;48.114;11.532;2023-03-29T03:01:21;95669.00;;;12.80
15680;BMP180;15488;48.114;11.532;2023-03-29T03:03:49;95671.00;;;12.80
15680;BMP180;15488;48.114;11.532;2023-03-29T03:06:17;95667.00;;;12.90
15680;BMP180;15488;48.114;11.532;2023-03-29T03:08:44;95668.00;;;12.80
15680;BMP180;15488;48.114;11.532;2023-03-29T03:11:11;95660.00;;;12.80
15680;BMP180;15488;48.114;11.532;2023-03-29T03:13:40;95660.00;;;12.80
15680;BMP180;15488;48.114;11.532;2023-03-29T03:16:09;95664.00;;;12.70
15680;BMP180;15488;48.114;11.532;2023-03-29T03:18:37;95661.00;;;12.70
15680;BMP180;15488;48.114;11.532;2023-03-29T03:21:04;95654.00;;;12.70
15680;BMP180;15488;48.114;11.532;2023-03-29T03:23:32;95661.00;;;12.70
15680;BMP180;15488;48.114;11.532;2023-03-29T03:25:59;95654.00;;;12.80
15680;BMP180;15488;48.114;11.532;2023-03-29T03:28:28;95631.00;;;12.70
15680;BMP180;15488;48.114;11.532;2023-03-29T03:30:55;95631.00;;;12.70
15680;BMP180;15488;48.114;11.532;2023-03-29T03:33:24;95623.00;;;12.70
15680;BMP180;15488;48.114;11.532;2023-03-29T03:35:52;95626.00;;;12.60
15680;BMP180;15488;48.114;11.532;2023-03-29T03:38:22;95628.00;;;12.60
15680;BMP180;15488;48.114;11.532;2023-03-29T03:40:52;95628.00;;;12.60
15680;BMP180;15488;48.114;11.532;2023-03-29T03:43:20;95623.00;;;12.60
15680;BMP180;15488;48.114;11.532;2023-03-29T03:45:47;95623.00;;;12.60
15680;BMP180;15488;48.114;11.532;2023-03-29T03:48:15;95612.00;;;12.60
15680;BMP180;15488;48.114;11.532;2023-03-29T03:50:48;95607.00;;;12.60
15680;BMP180;15488;48.114;11.532;2023-03-29T03:53:15;95608.00;;;12.50
15680;BMP180;15488;48.114;11.532;2023-03-29T03:55:47;95597.00;;;12.50
15680;BMP180;15488;48.114;11.532;2023-03-29T03:58:15;95527.00;;;12.50
15680;BMP180;15488;48.114;11.532;2023-03-29T04:00:43;95603.00;;;12.60
15680;BMP180;15488;48.114;11.532;2023-03-29T04:03:13;95597.00;;;12.50
15680;BMP180;15488;48.114;11.532;2023-03-29T04:05:43;95579.00;;;12.50
15680;BMP180;15488;48.114;11.532;2023-03-29T04:08:13;95584.00;;;12.50
15680;BMP180;15488;48.114;11.532;2023-03-29T04:10:41;95578.00;;;12.50
15680;BMP180;15488;48.114;11.532;2023-03-29T04:13:08;95579.00;;;12.50
15680;BMP180;15488;48.114;11.532;2023-03-29T04:15:37;95578.00;;;12.50
15680;BMP180;15488;48.114;11.532;2023-03-29T04:18:05;95580.00;;;12.40
15680;BMP180;15488;48.114;11.532;2023-03-29T04:20:33;95584.00;;;12.50
15680;BMP180;15488;48.114;11.532;2023-03-29T04:23:01;95573.00;;;12.50
15680;BMP180;15488;48.114;11.532;2023-03-29T04:25:30;95584.00;;;12.50
15680;BMP180;15488;48.114;11.532;2023-03-29T04:27:57;95581.00;;;12.50
15680;BMP180;15488;48.114;11.532;2023-03-29T04:30:25;95574.00;;;12.50
15680;BMP180;15488;48.114;11.532;2023-03-29T04:32:53;95571.00;;;12.40
15680;BMP180;15488;48.114;11.532;2023-03-29T04:35:23;95556.00;;;12.40
15680;BMP180;15488;48.114;11.532;2023-03-29T04:37:50;95565.00;;;12.40
15680;BMP180;15488;48.114;11.532;2023-03-29T04:40:20;95560.00;;;12.40
15680;BMP180;15488;48.114;11.532;2023-03-29T04:42:49;95553.00;;;12.50
15680;BMP180;15488;48.114;11.532;2023-03-29T04:45:16;95555.00;;;12.40
15680;BMP180;15488;48.114;11.532;2023-03-29T04:47:44;95556.00;;;12.40
15680;BMP180;15488;48.114;11.532;2023-03-29T04:50:12;95561.00;;;12.40
15680;BMP180;15488;48.114;11.532;2023-03-29T04:52:39;95560.00;;;12.40
15680;BMP180;15488;48.114;11.532;2023-03-29T04:55:07;95562.00;;;12.40
15680;BMP180;15488;48.114;11.532;2023-03-29T04:57:35;95543.00;;;12.40
15680;BMP180;15488;48.114;11.532;2023-03-29T05:00:05;95549.00;;;12.40
15680;BMP180;15488;48.114;11.532;2023-03-29T05:02:40;95557.00;;;12.50
15680;BMP180;15488;48.114;11.532;2023-03-29T05:05:08;95549.00;;;12.40
15680;BMP180;15488;48.114;11.532;2023-03-29T05:07:36;95545.00;;;12.40
15680;BMP180;15488;48.114;11.532;2023-03-29T05:10:05;95553.00;;;12.40
15680;BMP180;15488;48.114;11.532;2023-03-29T05:12:33;95560.00;;;12.40
15680;BMP180;15488;48.114;11.532;2023-03-29T05:15:03;95568.00;;;12.40
15680;BMP180;15488;48.114;11.532;2023-03-29T05:17:30;95560.00;;;12.50
15680;BMP180;15488;48.114;11.532;2023-03-29T05:19:58;95559.00;;;12.50
15680;BMP180;15488;48.114;11.532;2023-03-29T05:22:26;95561.00;;;12.60
15680;BMP180;15488;48.114;11.532;2023-03-29T05:24:54;95558.00;;;12.60
15680;BMP180;15488;48.114;11.532;2023-03-29T05:27:22;95561.00;;;12.70
15680;BMP180;15488;48.114;11.532;2023-03-29T05:29:50;95562.00;;;12.80
15680;BMP180;15488;48.114;11.532;2023-03-29T05:32:19;95559.00;;;12.90
15680;BMP180;15488;48.114;11.532;2023-03-29T05:34:47;95550.00;;;12.90
15680;BMP180;15488;48.114;11.532;2023-03-29T05:37:14;95548.00;;;12.90
15680;BMP180;15488;48.114;11.532;2023-03-29T05:39:42;95565.00;;;12.90
15680;BMP180;15488;48.114;11.532;2023-03-29T05:42:10;95556.00;;;13.00
15680;BMP180;15488;48.114;11.532;2023-03-29T05:44:40;95567.00;;;13.10
15680;BMP180;15488;48.114;11.532;2023-03-29T05:47:08;95553.00;;;13.10
15680;BMP180;15488;48.114;11.532;2023-03-29T05:49:37;95564.00;;;13.10
15680;BMP180;15488;48.114;11.532;2023-03-29T05:52:04;95563.00;;;13.20
15680;BMP180;15488;48.114;11.532;2023-03-29T05:54:32;95552.00;;;13.30
15680;BMP180;15488;48.114;11.532;2023-03-29T05:57:00;95558.00;;;13.30
15680;BMP180;15488;48.114;11.532;2023-03-29T05:59:27;95561.00;;;13.30
15680;BMP180;15488;48.114;11.532;2023-03-29T06:01:55;95564.00;;;13.30
15680;BMP180;15488;48.114;11.532;2023-03-29T06:04:25;95567.00;;;13.40
15680;BMP180;15488;48.114;11.532;2023-03-29T06:06:54;95564.00;;;13.40
15680;BMP180;15488;48.114;11.532;2023-03-29T06:09:21;95563.00;;;13.50
15680;BMP180;15488;48.114;11.532;2023-03-29T06:11:50;95564.00;;;13.50
15680;BMP180;15488;48.114;11.532;2023-03-29T06:14:18;95561.00;;;13.60
15680;BMP180;15488;48.114;11.532;2023-03-29T06:16:48;95569.00;;;13.50
15680;BMP180;15488;48.114;11.532;2023-03-29T06:19:16;95565.00;;;13.50
15680;BMP180;15488;48.114;11.532;2023-03-29T06:21:43;95572.00;;;13.60
15680;BMP180;15488;48.114;11.532;2023-03-29T06:24:12;95567.00;;;13.60
15680;BMP180;15488;48.114;11.532;2023-03-29T06:26:40;95582.00;;;13.60
15680;BMP180;15488;48.114;11.532;2023-03-29T06:29:08;95572.00;;;13.50
15680;BMP180;15488;48.114;11.532;2023-03-29T06:31:35;95580.00;;;13.60
15680;BMP180;15488;48.114;11.532;2023-03-29T06:34:03;95584.00;;;13.60
15680;BMP180;15488;48.114;11.532;2023-03-29T06:36:31;95592.00;;;13.60
15680;BMP180;15488;48.114;11.532;2023-03-29T06:39:00;95594.00;;;13.60
15680;BMP180;15488;48.114;11.532;2023-03-29T06:41:30;95603.00;;;13.60
15680;BMP180;15488;48.114;11.532;2023-03-29T06:43:58;95599.00;;;13.70
15680;BMP180;15488;48.114;11.532;2023-03-29T06:46:26;95596.00;;;13.60
15680;BMP180;15488;48.114;11.532;2023-03-29T06:48:54;95599.00;;;13.70
15680;BMP180;15488;48.114;11.532;2023-03-29T06:51:21;95595.00;;;13.80
15680;BMP180;15488;48.114;11.532;2023-03-29T06:53:49;95602.00;;;13.80
15680;BMP180;15488;48.114;11.532;2023-03-29T06:56:16;95600.00;;;13.90
15680;BMP180;15488;48.114;11.532;2023-03-29T06:58:45;95596.00;;;13.90
15680;BMP180;15488;48.114;11.532;2023-03-29T07:01:13;95599.00;;;14.00
15680;BMP180;15488;48.114;11.532;2023-03-29T07:03:41;95595.00;;;14.10
15680;BMP180;15488;48.114;11.532;2023-03-29T07:06:10;95593.00;;;14.10
15680;BMP180;15488;48.114;11.532;2023-03-29T07:08:40;95586.00;;;14.20
15680;BMP180;15488;48.114;11.532;2023-03-29T07:11:10;95589.00;;;14.20
15680;BMP180;15488;48.114;11.532;2023-03-29T07:13:39;95594.00;;;14.30
15680;BMP180;15488;48.114;11.532;2023-03-29T07:16:09;95582.00;;;14.30
15680;BMP180;15488;48.114;11.532;2023-03-29T07:18:37;95586.00;;;14.40
15680;BMP180;15488;48.114;11.532;2023-03-29T07:21:07;95588.00;;;14.30
15680;BMP180;15488;48.114;11.532;2023-03-29T07:23:35;95590.00;;;14.50
15680;BMP180;15488;48.114;11.532;2023-03-29T07:26:03;95601.00;;;14.60
15680;BMP180;15488;48.114;11.532;2023-03-29T07:28:33;95601.00;;;14.20
15680;BMP180;15488;48.114;11.532;2023-03-29T07:31:03;95586.00;;;14.60
15680;BMP180;15488;48.114;11.532;2023-03-29T07:33:34;95593.00;;;14.70
15680;BMP180;15488;48.114;11.532;2023-03-29T07:36:01;95584.00;;;14.70
15680;BMP180;15488;48.114;11.532;2023-03-29T07:38:30;95600.00;;;14.80
15680;BMP180;15488;48.114;11.532;2023-03-29T07:40:57;95602.00;;;14.90
15680;BMP180;15488;48.114;11.532;2023-03-29T07:43:25;95600.00;;;14.90
15680;BMP180;15488;48.114;11.532;2023-03-29T07:45:52;95605.00;;;14.90
15680;BMP180;15488;48.114;11.532;2023-03-29T07:48:21;95609.00;;;15.00
15680;BMP180;15488;48.114;11.532;2023-03-29T07:50:50;95614.00;;;15.10
15680;BMP180;15488;48.114;11.532;2023-03-29T07:53:17;95625.00;;;15.10
15680;BMP180;15488;48.114;11.532;2023-03-29T07:55:44;95612.00;;;15.10
15680;BMP180;15488;48.114;11.532;2023-03-29T07:58:14;95612.00;;;15.10
15680;BMP180;15488;48.114;11.532;2023-03-29T08:00:42;95613.00;;;15.20
15680;BMP180;15488;48.114;11.532;2023-03-29T08:03:10;95621.00;;;15.20
15680;BMP180;15488;48.114;11.532;2023-03-29T08:05:38;95626.00;;;15.30
15680;BMP180;15488;48.114;11.532;2023-03-29T08:08:07;95611.00;;;15.30
15680;BMP180;15488;48.114;11.532;2023-03-29T08:10:36;95628.00;;;15.30
15680;BMP180;15488;48.114;11.532;2023-03-29T08:13:05;95618.00;;;15.30
15680;BMP180;15488;48.114;11.532;2023-03-29T08:15:33;95616.00;;;15.50
15680;BMP180;15488;48.114;11.532;2023-03-29T08:18:00;95613.00;;;15.50
15680;BMP180;15488;48.114;11.532;2023-03-29T08:20:28;95611.00;;;15.50
15680;BMP180;15488;48.114;11.532;2023-03-29T08:22:55;95613.00;;;15.60
15680;BMP180;15488;48.114;11.532;2023-03-29T08:25:24;95618.00;;;15.60
15680;BMP180;15488;48.114;11.532;2023-03-29T08:27:52;95631.00;;;15.60
15680;BMP180;15488;48.114;11.532;2023-03-29T08:30:19;95615.00;;;15.60
15680;BMP180;15488;48.114;11.532;2023-03-29T08:32:47;95505.00;;;15.70
15680;BMP180;15488;48.114;11.532;2023-03-29T08:35:15;95627.00;;;15.70
15680;BMP180;15488;48.114;11.532;2023-03-29T08:37:42;95618.00;;;15.80
15680;BMP180;15488;48.114;11.532;2023-03-29T08:40:17;95613.00;;;15.70
15680;BMP180;15488;48.114;11.532;2023-03-29T08:43:01;95615.00;;;15.70
15680;BMP180;15488;48.114;11.532;2023-03-29T08:45:36;95613.00;;;15.80
15680;BMP180;15488;48.114;11.532;2023-03-29T08:48:13;95616.00;;;15.90
15680;BMP180;15488;48.114;11.532;2023-03-29T08:50:45;95614.00;;;15.90
15680;BMP180;15488;48.114;11.532;2023-03-29T08:53:17;95613.00;;;16.00
15680;BMP180;15488;48.114;11.532;2023-03-29T08:55:47;95611.00;;;16.00
15680;BMP180;15488;48.114;11.532;2023-03-29T08:58:21;95614.00;;;16.10
15680;BMP180;15488;48.114;11.532;2023-03-29T09:00:52;95604.00;;;16.20
15680;BMP180;15488;48.114;11.532;2023-03-29T09:03:22;95604.00;;;16.30
15680;BMP180;15488;48.114;11.532;2023-03-29T09:05:54;95609.00;;;16.40
15680;BMP180;15488;48.114;11.532;2023-03-29T09:08:22;95601.00;;;16.40
15680;BMP180;15488;48.114;11.532;2023-03-29T09:11:05;95595.00;;;16.40
15680;BMP180;15488;48.114;11.532;2023-03-29T09:13:44;95605.00;;;16.50
15680;BMP180;15488;48.114;11.532;2023-03-29T09:16:18;95600.00;;;16.50
15680;BMP180;15488;48.114;11.532;2023-03-29T09:18:58;95618.00;;;16.50
15680;BMP180;15488;48.114;11.532;2023-03-29T09:21:31;95618.00;;;16.50
15680;BMP180;15488;48.114;11.532;2023-03-29T09:24:19;95610.00;;;16.60
15680;BMP180;15488;48.114;11.532;2023-03-29T09:26:53;95613.00;;;16.70
15680;BMP180;15488;48.114;11.532;2023-03-29T09:29:38;95618.00;;;16.80
15680;BMP180;15488;48.114;11.532;2023-03-29T09:32:15;95616.00;;;16.80
15680;BMP180;15488;48.114;11.532;2023-03-29T09:34:51;95619.00;;;16.80
15680;BMP180;15488;48.114;11.532;2023-03-29T09:37:24;95616.00;;;16.90
15680;BMP180;15488;48.114;11.532;2023-03-29T09:39:55;95614.00;;;16.80
15680;BMP180;15488;48.114;11.532;2023-03-29T09:42:24;95616.00;;;16.90
15680;BMP180;15488;48.114;11.532;2023-03-29T09:44:59;95616.00;;;16.90
15680;BMP180;15488;48.114;11.532;2023-03-29T09:47:35;95616.00;;;16.90
15680;BMP180;15488;48.114;11.532;2023-03-29T09:50:10;95605.00;;;16.90
15680;BMP180;15488;48.114;11.532;2023-03-29T09:52:40;95603.00;;;17.00
15680;BMP180;15488;48.114;11.532;2023-03-29T09:55:13;95602.00;;;17.00
15680;BMP180;15488;48.114;11.532;2023-03-29T09:57:41;95601.00;;;17.10
15680;BMP180;15488;48.114;11.532;2023-03-29T10:00:11;95602.00;;;17.10
15680;BMP180;15488;48.114;11.532;2023-03-29T10:02:40;95601.00;;;17.20
15680;BMP180;15488;48.114;11.532;2023-03-29T10:05:14;95596.00;;;17.30
15680;BMP180;15488;48.114;11.532;2023-03-29T10:07:47;95590.00;;;17.30
15680;BMP180;15488;48.114;11.532;2023-03-29T10:10:21;95587.00;;;17.40
15680;BMP180;15488;48.114;11.532;2023-03-29T10:12:51;95586.00;;;17.50
15680;BMP180;15488;48.114;11.532;2023-03-29T10:15:22;95584.00;;;17.50
15680;BMP180;15488;48.114;11.532;2023-03-29T10:17:57;95580.00;;;17.60
15680;BMP180;15488;48.114;11.532;2023-03-29T10:20:25;95582.00;;;17.60
15680;BMP180;15488;48.114;11.532;2023-03-29T10:22:55;95575.00;;;17.60
15680;BMP180;15488;48.114;11.532;2023-03-29T10:25:26;95581.00;;;17.70
15680;BMP180;15488;48.114;11.532;2023-03-29T10:27:57;95576.00;;;17.80
15680;BMP180;15488;48.114;11.532;2023-03-29T10:30:33;95575.00;;;17.90
15680;BMP180;15488;48.114;11.532;2023-03-29T10:33:01;95570.00;;;17.90
15680;BMP180;15488;48.114;11.532;2023-03-29T10:35:32;95568.00;;;17.90
15680;BMP180;15488;48.114;11.532;2023-03-29T10:38:03;95569.00;;;18.00
15680;BMP180;15488;48.114;11.532;2023-03-29T10:40:34;95554.00;;;18.00
15680;BMP180;15488;48.114;11.532;2023-03-29T10:43:12;95556.00;;;18.10
15680;BMP180;15488;48.114;11.532;2023-03-29T10:45:42;95552.00;;;18.20
15680;BMP180;15488;48.114;11.532;2023-03-29T10:48:12;95548.00;;;18.20
15680;BMP180;15488;48.114;11.532;2023-03-29T10:50:41;95571.00;;;18.30
15680;BMP180;15488;48.114;11.532;2023-03-29T10:53:14;95566.00;;;18.30
15680;BMP180;15488;48.114;11.532;2023-03-29T10:55:48;95559.00;;;18.40
15680;BMP180;15488;48.114;11.532;2023-03-29T10:58:28;95555.00;;;18.40
15680;BMP180;15488;48.114;11.532;2023-03-29T11:00:58;95558.00;;;18.50
15680;BMP180;15488;48.114;11.532;2023-03-29T11:03:45;95558.00;;;18.50
15680;BMP180;15488;48.114;11.532;2023-03-29T11:06:18;95564.00;;;18.60
15680;BMP180;15488;48.114;11.532;2023-03-29T11:08:52;95537.00;;;18.60
15680;BMP180;15488;48.114;11.532;2023-03-29T11:11:45;95552.00;;;18.70
15680;BMP180;15488;48.114;11.532;2023-03-29T11:14:22;95541.00;;;18.70
15680;BMP180;15488;48.114;11.532;2023-03-29T11:17:01;95546.00;;;18.80
15680;BMP180;15488;48.114;11.532;2023-03-29T11:19:48;95552.00;;;18.90
15680;BMP180;15488;48.114;11.532;2023-03-29T11:22:22;95555.00;;;18.90
15680;BMP180;15488;48.114;11.532;2023-03-29T11:25:08;95557.00;;;19.00
15680;BMP180;15488;48.114;11.532;2023-03-29T11:27:47;95553.00;;;19.10
15680;BMP180;15488;48.114;11.532;2023-03-29T11:30:19;95556.00;;;19.20
15680;BMP180;15488;48.114;11.532;2023-03-29T11:32:55;95548.00;;;19.20
15680;BMP180;15488;48.114;11.532;2023-03-29T11:35:39;95555.00;;;19.30
15680;BMP180;15488;48.114;11.532;2023-03-29T11:38:15;95548.00;;;19.30
15680;BMP180;15488;48.114;11.532;2023-03-29T11:40:55;95553.00;;;19.40
15680;BMP180;15488;48.114;11.532;2023-03-29T11:43:29;95558.00;;;19.40
15680;BMP180;15488;48.114;11.532;2023-03-29T11:46:02;95540.00;;;19.40
15680;BMP180;15488;48.114;11.532;2023-03-29T11:48:38;95544.00;;;19.40
15680;BMP180;15488;48.114;11.532;2023-03-29T11:51:12;95555.00;;;19.40
15680;BMP180;15488;48.114;11.532;2023-03-29T11:53:47;95552.00;;;19.40
15680;BMP180;15488;48.114;11.532;2023-03-29T11:56:21;95541.00;;;19.40
15680;BMP180;15488;48.114;11.532;2023-03-29T11:58:56;95548.00;;;19.50
15680;BMP180;15488;48.114;11.532;2023-03-29T12:01:30;95535.00;;;19.50
15680;BMP180;15488;48.114;11.532;2023-03-29T12:04:04;95532.00;;;19.60
15680;BMP180;15488;48.114;11.532;2023-03-29T12:06:37;95540.00;;;19.60
15680;BMP180;15488;48.114;11.532;2023-03-29T12:09:10;95536.00;;;19.70
15680;BMP180;15488;48.114;11.532;2023-03-29T12:11:39;95527.00;;;19.80
15680;BMP180;15488;48.114;11.532;2023-03-29T12:14:13;95521.00;;;19.90
15680;BMP180;15488;48.114;11.532;2023-03-29T12:16:45;95520.00;;;19.90
15680;BMP180;15488;48.114;11.532;2023-03-29T12:19:19;95523.00;;;20.00
15680;BMP180;15488;48.114;11.532;2023-03-29T12:21:48;95525.00;;;20.10
15680;BMP180;15488;48.114;11.532;2023-03-29T12:24:21;95531.00;;;20.10
15680;BMP180;15488;48.114;11.532;2023-03-29T12:27:11;95527.00;;;20.20
15680;BMP180;15488;48.114;11.532;2023-03-29T12:32:45;95515.00;;;20.30
15680;BMP180;15488;48.114;11.532;2023-03-29T12:35:29;95516.00;;;20.30
15680;BMP180;15488;48.114;11.532;2023-03-29T12:38:08;95509.00;;;20.40
15680;BMP180;15488;48.114;11.532;2023-03-29T12:40:40;95510.00;;;20.40
15680;BMP180;15488;48.114;11.532;2023-03-29T12:43:14;95499.00;;;20.40
15680;BMP180;15488;48.114;11.532;2023-03-29T12:45:43;95500.00;;;20.50
15680;BMP180;15488;48.114;11.532;2023-03-29T12:48:15;95502.00;;;20.40
15680;BMP180;15488;48.114;11.532;2023-03-29T12:50:47;95502.00;;;20.50
15680;BMP180;15488;48.114;11.532;2023-03-29T12:53:20;95485.00;;;20.50
15680;BMP180;15488;48.114;11.532;2023-03-29T12:55:54;95499.00;;;20.50
15680;BMP180;15488;48.114;11.532;2023-03-29T12:58:54;95488.00;;;20.50
15680;BMP180;15488;48.114;11.532;2023-03-29T13:01:29;95490.00;;;20.50
15680;BMP180;15488;48.114;11.532;2023-03-29T13:04:16;95490.00;;;20.60
15680;BMP180;15488;48.114;11.532;2023-03-29T13:06:56;95484.00;;;20.80
15680;BMP180;15488;48.114;11.532;2023-03-29T13:09:30;95486.00;;;21.00
15680;BMP180;15488;48.114;11.532;2023-03-29T13:12:11;95485.00;;;21.20
15680;BMP180;15488;48.114;11.532;2023-03-29T13:14:45;95483.00;;;21.60
15680;BMP180;15488;48.114;11.532;2023-03-29T13:17:25;95485.00;;;21.80
15680;BMP180;15488;48.114;11.532;2023-03-29T13:20:10;95490.00;;;22.10
15680;BMP180;15488;48.114;11.532;2023-03-29T13:22:51;95490.00;;;22.50
15680;BMP180;15488;48.114;11.532;2023-03-29T13:25:33;95484.00;;;22.60
15680;BMP180;15488;48.114;11.532;2023-03-29T13:28:09;95490.00;;;22.70
15680;BMP180;15488;48.114;11.532;2023-03-29T13:30:50;95488.00;;;22.80
15680;BMP180;15488;48.114;11.532;2023-03-29T13:33:38;95474.00;;;22.90
15680;BMP180;15488;48.114;11.532;2023-03-29T13:36:14;95472.00;;;23.00
15680;BMP180;15488;48.114;11.532;2023-03-29T13:38:46;95464.00;;;23.00
15680;BMP180;15488;48.114;11.532;2023-03-29T13:41:32;95469.00;;;23.20
15680;BMP180;15488;48.114;11.532;2023-03-29T13:44:25;95475.00;;;23.30
15680;BMP180;15488;48.114;11.532;2023-03-29T13:47:03;95479.00;;;23.30
15680;BMP180;15488;48.114;11.532;2023-03-29T13:49:32;95467.00;;;23.30
15680;BMP180;15488;48.114;11.532;2023-03-29T13:52:08;95463.00;;;23.10
15680;BMP180;15488;48.114;11.532;2023-03-29T13:54:45;95454.00;;;23.00
15680;BMP180;15488;48.114;11.532;2023-03-29T13:57:19;95469.00;;;23.00
15680;BMP180;15488;48.114;11.532;2023-03-29T13:59:53;95467.00;;;22.80
15680;BMP180;15488;48.114;11.532;2023-03-29T14:02:30;95463.00;;;22.70
15680;BMP180;15488;48.114;11.532;2023-03-29T14:05:00;95475.00;;;22.70
15680;BMP180;15488;48.114;11.532;2023-03-29T14:07:31;95461.00;;;22.50
15680;BMP180;15488;48.114;11.532;2023-03-29T14:10:01;95443.00;;;22.30
15680;BMP180;15488;48.114;11.532;2023-03-29T14:12:34;95461.00;;;22.20
15680;BMP180;15488;48.114;11.532;2023-03-29T14:15:03;95458.00;;;22.00
15680;BMP180;15488;48.114;11.532;2023-03-29T14:17:31;95472.00;;;21.90
15680;BMP180;15488;48.114;11.532;2023-03-29T14:20:00;95458.00;;;21.80
15680;BMP180;15488;48.114;11.532;2023-03-29T14:22:33;95450.00;;;21.60
15680;BMP180;15488;48.114;11.532;2023-03-29T14:25:11;95467.00;;;21.50